sensor_id;sensor_type;location;lat;lon;timestamp;temperature;humidity
22635;DHT22;11484;50.858;4.384;2023-02-01T00:02:00;9.00;99.90
22635;DHT22;11484;50.858;4.384;2023-02-01T00:04:27;9.00;99.90
22635;DHT22;11484;50.858;4.384;2023-02-01T00:06:52;9.00;99.90
22635;DHT22;11484;50.858;4.384;2023-02-01T00:09:18;9.00;99.90
22635;DHT22;11484;50.858;4.384;2023-02-01T00:11:44;9.10;99.90
22635;DHT22;11484;50.858;4.384;2023-02-01T00:14:10;9.00;99.90
22635;DHT22;11484;50.858;4.384;2023-02-01T00:16:36;9.00;99.90
22635;DHT22;11484;50.858;4.384;2023-02-01T00:19:06;9.00;99.90
22635;DHT22;11484;50.858;4.384;2023-02-01T00:21:33;8.90;99.90
22635;DHT22;11484;50.858;4.384;2023-02-01T00:23:59;8.90;99.90
22635;DHT22;11484;50.858;4.384;2023-02-01T00:26:27;8.90;99.90
22635;DHT22;11484;50.858;4.384;2023-02-01T00:28:53;8.90;99.90
22635;DHT22;11484;50.858;4.384;2023-02-01T00:31:19;8.90;99.90
22635;DHT22;11484;50.858;4.384;2023-02-01T00:33:47;9.00;99.90
22635;DHT22;11484;50.858;4.384;2023-02-01T00:36:13;9.00;99.90
22635;DHT22;11484;50.858;4.384;2023-02-01T00:38:39;9.00;99.90
22635;DHT22;11484;50.858;4.384;2023-02-01T00:41:15;9.00;99.90
22635;DHT22;11484;50.858;4.384;2023-02-01T00:43:41;9.00;99.90
22635;DHT22;11484;50.858;4.384;2023-02-01T00:46:07;9.00;99.90
22635;DHT22;11484;50.858;4.384;2023-02-01T00:48:33;8.90;99.90
22635;DHT22;11484;50.858;4.384;2023-02-01T00:51:03;8.90;99.90
22635;DHT22;11484;50.858;4.384;2023-02-01T00:53:30;8.90;99.90
22635;DHT22;11484;50.858;4.384;2023-02-01T00:55:56;9.00;99.90
22635;DHT22;11484;50.858;4.384;2023-02-01T00:58:22;8.90;99.90
22635;DHT22;11484;50.858;4.384;2023-02-01T01:01:07;8.90;99.90
22635;DHT22;11484;50.858;4.384;2023-02-01T01:03:34;9.00;99.90
22635;DHT22;11484;50.858;4.384;2023-02-01T01:06:02;8.90;99.90
22635;DHT22;11484;50.858;4.384;2023-02-01T01:08:28;8.90;99.90
22635;DHT22;11484;50.858;4.384;2023-02-01T01:10:54;8.90;99.90
22635;DHT22;11484;50.858;4.384;2023-02-01T01:13:20;8.90;99.90
22635;DHT22;11484;50.858;4.384;2023-02-01T01:15:46;8.90;99.90
22635;DHT22;11484;50.858;4.384;2023-02-01T01:18:12;8.90;99.90
22635;DHT22;11484;50.858;4.384;2023-02-01T01:20:39;8.90;99.90
22635;DHT22;11484;50.858;4.384;2023-02-01T01:23:06;8.90;99.90
22635;DHT22;11484;50.858;4.384;2023-02-01T01:25:32;8.90;99.90
22635;DHT22;11484;50.858;4.384;2023-02-01T01:28:02;8.80;99.90
22635;DHT22;11484;50.858;4.384;2023-02-01T01:30:27;8.80;99.90
22635;DHT22;11484;50.858;4.384;2023-02-01T01:32:53;8.90;99.90
22635;DHT22;11484;50.858;4.384;2023-02-01T01:35:19;8.90;99.90
22635;DHT22;11484;50.858;4.384;2023-02-01T01:37:45;8.90;99.90
22635;DHT22;11484;50.858;4.384;2023-02-01T01:40:12;8.90;99.90
22635;DHT22;11484;50.858;4.384;2023-02-01T01:42:42;8.80;99.90
22635;DHT22;11484;50.858;4.384;2023-02-01T01:47:58;8.70;99.90
22635;DHT22;11484;50.858;4.384;2023-02-01T01:50:40;8.70;99.90
22635;DHT22;11484;50.858;4.384;2023-02-01T01:53:11;8.70;99.90
22635;DHT22;11484;50.858;4.384;2023-02-01T01:55:40;8.60;99.90
22635;DHT22;11484;50.858;4.384;2023-02-01T01:58:29;8.60;99.90
22635;DHT22;11484;50.858;4.384;2023-02-01T02:00:57;8.60;99.90
22635;DHT22;11484;50.858;4.384;2023-02-01T02:03:37;8.60;99.90
22635;DHT22;11484;50.858;4.384;2023-02-01T02:06:07;8.60;99.90
22635;DHT22;11484;50.858;4.384;2023-02-01T02:08:34;8.60;99.90
22635;DHT22;11484;50.858;4.384;2023-02-01T02:11:00;8.50;99.90
22635;DHT22;11484;50.858;4.384;2023-02-01T02:13:38;8.50;99.90
22635;DHT22;11484;50.858;4.384;2023-02-01T02:38:53;8.20;99.90
22635;DHT22;11484;50.858;4.384;2023-02-01T02:42:03;8.20;99.90
22635;DHT22;11484;50.858;4.384;2023-02-01T02:50:48;8.40;99.90
22635;DHT22;11484;50.858;4.384;2023-02-01T02:54:03;8.40;99.90
22635;DHT22;11484;50.858;4.384;2023-02-01T02:56:49;8.30;99.90
22635;DHT22;11484;50.858;4.384;2023-02-01T02:59:35;8.30;99.90
22635;DHT22;11484;50.858;4.384;2023-02-01T03:02:21;8.20;99.90
22635;DHT22;11484;50.858;4.384;2023-02-01T03:05:06;8.20;99.90
22635;DHT22;11484;50.858;4.384;2023-02-01T03:13:06;8.10;99.90
22635;DHT22;11484;50.858;4.384;2023-02-01T03:15:38;8.10;99.90
22635;DHT22;11484;50.858;4.384;2023-02-01T03:18:12;8.00;99.90
22635;DHT22;11484;50.858;4.384;2023-02-01T03:20:40;8.00;99.90
22635;DHT22;11484;50.858;4.384;2023-02-01T03:23:09;8.10;99.90
22635;DHT22;11484;50.858;4.384;2023-02-01T03:25:36;8.00;99.90
22635;DHT22;11484;50.858;4.384;2023-02-01T03:28:05;8.00;99.90
22635;DHT22;11484;50.858;4.384;2023-02-01T03:30:44;8.00;99.90
22635;DHT22;11484;50.858;4.384;2023-02-01T03:33:16;7.90;99.90
22635;DHT22;11484;50.858;4.384;2023-02-01T03:44:02;7.90;99.90
22635;DHT22;11484;50.858;4.384;2023-02-01T03:46:37;7.90;99.90
22635;DHT22;11484;50.858;4.384;2023-02-01T03:49:07;7.80;99.90
22635;DHT22;11484;50.858;4.384;2023-02-01T03:51:35;7.80;99.90
22635;DHT22;11484;50.858;4.384;2023-02-01T03:54:02;7.90;99.90
22635;DHT22;11484;50.858;4.384;2023-02-01T03:56:29;7.90;99.90
22635;DHT22;11484;50.858;4.384;2023-02-01T03:58:57;7.90;99.90
22635;DHT22;11484;50.858;4.384;2023-02-01T04:01:27;7.70;99.90
22635;DHT22;11484;50.858;4.384;2023-02-01T04:03:53;7.70;99.90
22635;DHT22;11484;50.858;4.384;2023-02-01T04:06:19;7.70;99.90
22635;DHT22;11484;50.858;4.384;2023-02-01T04:08:45;7.70;99.90
22635;DHT22;11484;50.858;4.384;2023-02-01T04:11:11;7.70;99.90
22635;DHT22;11484;50.858;4.384;2023-02-01T04:13:36;7.70;99.90
22635;DHT22;11484;50.858;4.384;2023-02-01T04:16:02;7.70;99.90
22635;DHT22;11484;50.858;4.384;2023-02-01T04:18:28;7.60;99.90
22635;DHT22;11484;50.858;4.384;2023-02-01T04:20:54;7.60;99.90
22635;DHT22;11484;50.858;4.384;2023-02-01T04:23:19;7.60;99.90
22635;DHT22;11484;50.858;4.384;2023-02-01T04:25:46;7.60;99.90
22635;DHT22;11484;50.858;4.384;2023-02-01T04:28:11;7.60;99.90
22635;DHT22;11484;50.858;4.384;2023-02-01T04:30:37;7.60;99.90
22635;DHT22;11484;50.858;4.384;2023-02-01T04:33:03;7.50;99.90
22635;DHT22;11484;50.858;4.384;2023-02-01T04:35:32;7.50;99.90
22635;DHT22;11484;50.858;4.384;2023-02-01T04:37:58;7.50;99.90
22635;DHT22;11484;50.858;4.384;2023-02-01T04:40:24;7.50;99.90
22635;DHT22;11484;50.858;4.384;2023-02-01T04:42:50;7.40;99.90
22635;DHT22;11484;50.858;4.384;2023-02-01T04:45:15;7.40;99.90
22635;DHT22;11484;50.858;4.384;2023-02-01T04:47:41;7.40;99.90
22635;DHT22;11484;50.858;4.384;2023-02-01T04:50:07;7.30;99.90
22635;DHT22;11484;50.858;4.384;2023-02-01T04:52:36;7.30;99.90
22635;DHT22;11484;50.858;4.384;2023-02-01T04:55:03;7.30;99.90
22635;DHT22;11484;50.858;4.384;2023-02-01T04:57:29;7.30;99.90
22635;DHT22;11484;50.858;4.384;2023-02-01T04:59:54;7.30;99.90
22635;DHT22;11484;50.858;4.384;2023-02-01T05:02:20;7.20;99.90
22635;DHT22;11484;50.858;4.384;2023-02-01T05:04:46;7.20;99.90
22635;DHT22;11484;50.858;4.384;2023-02-01T05:07:12;7.20;99.90
22635;DHT22;11484;50.858;4.384;2023-02-01T05:09:37;7.20;99.90
22635;DHT22;11484;50.858;4.384;2023-02-01T05:12:03;7.20;99.90
22635;DHT22;11484;50.858;4.384;2023-02-01T05:14:48;7.20;99.90
22635;DHT22;11484;50.858;4.384;2023-02-01T05:17:14;7.20;99.90
22635;DHT22;11484;50.858;4.384;2023-02-01T05:19:40;7.20;99.90
22635;DHT22;11484;50.858;4.384;2023-02-01T05:22:05;7.20;99.90
22635;DHT22;11484;50.858;4.384;2023-02-01T05:24:31;7.10;99.90
22635;DHT22;11484;50.858;4.384;2023-02-01T05:26:57;7.20;99.90
22635;DHT22;11484;50.858;4.384;2023-02-01T05:29:23;7.10;99.90
22635;DHT22;11484;50.858;4.384;2023-02-01T05:31:48;6.90;99.90
22635;DHT22;11484;50.858;4.384;2023-02-01T05:34:16;7.00;99.90
22635;DHT22;11484;50.858;4.384;2023-02-01T05:36:42;6.90;99.90
22635;DHT22;11484;50.858;4.384;2023-02-01T05:39:08;7.00;99.90
22635;DHT22;11484;50.858;4.384;2023-02-01T05:41:34;7.00;99.90
22635;DHT22;11484;50.858;4.384;2023-02-01T05:43:59;7.00;99.90
22635;DHT22;11484;50.858;4.384;2023-02-01T05:46:25;6.90;99.90
22635;DHT22;11484;50.858;4.384;2023-02-01T05:48:51;6.80;99.90
22635;DHT22;11484;50.858;4.384;2023-02-01T05:51:16;6.80;99.90
22635;DHT22;11484;50.858;4.384;2023-02-01T05:53:42;6.70;99.90
22635;DHT22;11484;50.858;4.384;2023-02-01T05:56:08;6.70;99.90
22635;DHT22;11484;50.858;4.384;2023-02-01T05:58:33;6.70;99.90
22635;DHT22;11484;50.858;4.384;2023-02-01T06:01:00;6.60;99.90
22635;DHT22;11484;50.858;4.384;2023-02-01T06:03:27;6.60;99.90
22635;DHT22;11484;50.858;4.384;2023-02-01T06:05:55;6.60;99.90
22635;DHT22;11484;50.858;4.384;2023-02-01T06:08:20;6.60;99.90
22635;DHT22;11484;50.858;4.384;2023-02-01T06:10:46;6.60;99.90
22635;DHT22;11484;50.858;4.384;2023-02-01T06:13:12;6.50;99.90
22635;DHT22;11484;50.858;4.384;2023-02-01T06:15:37;6.50;99.90
22635;DHT22;11484;50.858;4.384;2023-02-01T06:18:03;6.50;99.90
22635;DHT22;11484;50.858;4.384;2023-02-01T06:20:29;6.50;99.90
22635;DHT22;11484;50.858;4.384;2023-02-01T06:22:55;6.40;99.90
22635;DHT22;11484;50.858;4.384;2023-02-01T06:25:21;6.40;99.90
22635;DHT22;11484;50.858;4.384;2023-02-01T06:27:47;6.40;99.90
22635;DHT22;11484;50.858;4.384;2023-02-01T06:30:13;6.40;99.90
22635;DHT22;11484;50.858;4.384;2023-02-01T06:32:40;6.40;99.90
22635;DHT22;11484;50.858;4.384;2023-02-01T06:35:08;6.40;99.90
22635;DHT22;11484;50.858;4.384;2023-02-01T06:37:37;6.30;99.90
22635;DHT22;11484;50.858;4.384;2023-02-01T06:40:03;6.40;99.90
22635;DHT22;11484;50.858;4.384;2023-02-01T06:42:29;6.50;99.90
22635;DHT22;11484;50.858;4.384;2023-02-01T06:44:55;6.50;99.90
22635;DHT22;11484;50.858;4.384;2023-02-01T06:47:21;6.50;99.90
22635;DHT22;11484;50.858;4.384;2023-02-01T06:49:46;6.60;99.90
22635;DHT22;11484;50.858;4.384;2023-02-01T06:52:12;6.50;99.90
22635;DHT22;11484;50.858;4.384;2023-02-01T06:54:38;6.50;99.90
22635;DHT22;11484;50.858;4.384;2023-02-01T06:57:04;6.60;99.90
22635;DHT22;11484;50.858;4.384;2023-02-01T06:59:29;6.60;99.90
22635;DHT22;11484;50.858;4.384;2023-02-01T07:01:55;6.60;99.90
22635;DHT22;11484;50.858;4.384;2023-02-01T07:04:21;6.50;99.90
22635;DHT22;11484;50.858;4.384;2023-02-01T07:06:47;6.60;99.90
22635;DHT22;11484;50.858;4.384;2023-02-01T07:09:13;6.60;99.90
22635;DHT22;11484;50.858;4.384;2023-02-01T07:11:39;6.60;99.90
22635;DHT22;11484;50.858;4.384;2023-02-01T07:14:10;6.60;99.90
22635;DHT22;11484;50.858;4.384;2023-02-01T07:16:36;6.60;99.90
22635;DHT22;11484;50.858;4.384;2023-02-01T07:19:02;6.60;99.90
22635;DHT22;11484;50.858;4.384;2023-02-01T07:21:28;6.70;99.90
22635;DHT22;11484;50.858;4.384;2023-02-01T07:23:54;6.70;99.90
22635;DHT22;11484;50.858;4.384;2023-02-01T07:26:21;6.70;99.90
22635;DHT22;11484;50.858;4.384;2023-02-01T07:28:47;6.70;99.90
22635;DHT22;11484;50.858;4.384;2023-02-01T07:31:18;6.60;99.90
22635;DHT22;11484;50.858;4.384;2023-02-01T07:33:50;6.60;99.90
22635;DHT22;11484;50.858;4.384;2023-02-01T07:36:18;6.70;99.90
22635;DHT22;11484;50.858;4.384;2023-02-01T07:38:43;6.70;99.90
22635;DHT22;11484;50.858;4.384;2023-02-01T07:41:10;6.70;99.90
22635;DHT22;11484;50.858;4.384;2023-02-01T07:43:37;6.80;99.90
22635;DHT22;11484;50.858;4.384;2023-02-01T07:46:04;6.80;99.90
22635;DHT22;11484;50.858;4.384;2023-02-01T07:48:37;6.80;99.90
22635;DHT22;11484;50.858;4.384;2023-02-01T07:51:10;6.90;99.90
22635;DHT22;11484;50.858;4.384;2023-02-01T07:53:36;7.00;99.90
22635;DHT22;11484;50.858;4.384;2023-02-01T07:56:03;7.00;99.90
22635;DHT22;11484;50.858;4.384;2023-02-01T07:58:31;7.00;99.90
22635;DHT22;11484;50.858;4.384;2023-02-01T08:00:57;7.00;99.90
22635;DHT22;11484;50.858;4.384;2023-02-01T08:03:41;7.00;99.90
22635;DHT22;11484;50.858;4.384;2023-02-01T08:06:07;7.10;99.90
22635;DHT22;11484;50.858;4.384;2023-02-01T08:08:33;7.20;99.90
22635;DHT22;11484;50.858;4.384;2023-02-01T08:11:01;7.20;99.90
22635;DHT22;11484;50.858;4.384;2023-02-01T08:13:27;7.30;99.90
22635;DHT22;11484;50.858;4.384;2023-02-01T08:15:57;7.40;99.90
22635;DHT22;11484;50.858;4.384;2023-02-01T08:18:22;7.50;99.90
22635;DHT22;11484;50.858;4.384;2023-02-01T08:20:48;7.50;99.90
22635;DHT22;11484;50.858;4.384;2023-02-01T08:23:14;7.60;99.90
22635;DHT22;11484;50.858;4.384;2023-02-01T08:25:40;7.60;99.90
22635;DHT22;11484;50.858;4.384;2023-02-01T08:28:07;7.60;99.90
22635;DHT22;11484;50.858;4.384;2023-02-01T08:30:33;7.70;99.90
22635;DHT22;11484;50.858;4.384;2023-02-01T08:32:58;7.60;99.90
22635;DHT22;11484;50.858;4.384;2023-02-01T08:35:24;7.60;99.90
22635;DHT22;11484;50.858;4.384;2023-02-01T08:37:50;7.60;99.90
22635;DHT22;11484;50.858;4.384;2023-02-01T08:40:17;7.60;99.90
22635;DHT22;11484;50.858;4.384;2023-02-01T08:42:42;7.70;99.90
22635;DHT22;11484;50.858;4.384;2023-02-01T08:45:22;7.80;99.90
22635;DHT22;11484;50.858;4.384;2023-02-01T08:47:54;7.90;99.90
22635;DHT22;11484;50.858;4.384;2023-02-01T08:50:21;7.90;99.90
22635;DHT22;11484;50.858;4.384;2023-02-01T08:52:47;8.10;99.90
22635;DHT22;11484;50.858;4.384;2023-02-01T08:55:14;8.00;99.90
22635;DHT22;11484;50.858;4.384;2023-02-01T08:57:41;8.10;99.90
22635;DHT22;11484;50.858;4.384;2023-02-01T09:00:09;8.10;99.90
22635;DHT22;11484;50.858;4.384;2023-02-01T09:02:36;8.10;99.90
22635;DHT22;11484;50.858;4.384;2023-02-01T09:05:02;8.10;99.90
22635;DHT22;11484;50.858;4.384;2023-02-01T09:07:29;8.20;99.90
22635;DHT22;11484;50.858;4.384;2023-02-01T09:09:55;8.20;99.90
22635;DHT22;11484;50.858;4.384;2023-02-01T09:12:22;8.30;99.90
22635;DHT22;11484;50.858;4.384;2023-02-01T09:14:48;8.30;99.90
22635;DHT22;11484;50.858;4.384;2023-02-01T09:17:14;8.30;99.90
22635;DHT22;11484;50.858;4.384;2023-02-01T09:19:40;8.40;99.90
22635;DHT22;11484;50.858;4.384;2023-02-01T09:22:05;8.50;99.90
22635;DHT22;11484;50.858;4.384;2023-02-01T09:24:31;8.50;99.90
22635;DHT22;11484;50.858;4.384;2023-02-01T09:26:57;8.60;99.90
22635;DHT22;11484;50.858;4.384;2023-02-01T09:29:23;8.70;99.90
22635;DHT22;11484;50.858;4.384;2023-02-01T09:31:48;8.90;99.90
22635;DHT22;11484;50.858;4.384;2023-02-01T09:34:14;8.80;99.90
22635;DHT22;11484;50.858;4.384;2023-02-01T09:36:40;8.80;99.90
22635;DHT22;11484;50.858;4.384;2023-02-01T09:39:05;8.70;99.90
22635;DHT22;11484;50.858;4.384;2023-02-01T09:47:21;8.80;99.90
22635;DHT22;11484;50.858;4.384;2023-02-01T09:50:01;8.90;99.90
22635;DHT22;11484;50.858;4.384;2023-02-01T09:52:34;9.00;99.90
22635;DHT22;11484;50.858;4.384;2023-02-01T09:55:06;9.00;99.90
22635;DHT22;11484;50.858;4.384;2023-02-01T09:57:58;9.00;99.90
22635;DHT22;11484;50.858;4.384;2023-02-01T10:00:28;9.00;99.90
22635;DHT22;11484;50.858;4.384;2023-02-01T10:02:55;8.90;99.90
22635;DHT22;11484;50.858;4.384;2023-02-01T10:11:36;8.90;99.90
22635;DHT22;11484;50.858;4.384;2023-02-01T10:14:41;9.00;99.90
22635;DHT22;11484;50.858;4.384;2023-02-01T10:20:11;8.90;99.90
22635;DHT22;11484;50.858;4.384;2023-02-01T10:25:44;8.80;99.90
22635;DHT22;11484;50.858;4.384;2023-02-01T10:28:16;8.80;99.90
22635;DHT22;11484;50.858;4.384;2023-02-01T10:30:45;8.70;99.90
22635;DHT22;11484;50.858;4.384;2023-02-01T10:35:41;8.70;99.90
22635;DHT22;11484;50.858;4.384;2023-02-01T10:38:26;8.70;99.90
22635;DHT22;11484;50.858;4.384;2023-02-01T10:40:56;8.70;99.90
22635;DHT22;11484;50.858;4.384;2023-02-01T10:43:24;8.70;99.90
22635;DHT22;11484;50.858;4.384;2023-02-01T10:45:51;8.80;99.90
22635;DHT22;11484;50.858;4.384;2023-02-01T10:48:17;8.80;99.90
22635;DHT22;11484;50.858;4.384;2023-02-01T10:51:00;8.90;99.90
22635;DHT22;11484;50.858;4.384;2023-02-01T10:54:03;8.90;99.90
22635;DHT22;11484;50.858;4.384;2023-02-01T10:56:28;9.00;99.90
22635;DHT22;11484;50.858;4.384;2023-02-01T10:59:03;9.10;99.90
22635;DHT22;11484;50.858;4.384;2023-02-01T11:01:40;9.20;99.90
22635;DHT22;11484;50.858;4.384;2023-02-01T11:04:14;9.30;99.90
22635;DHT22;11484;50.858;4.384;2023-02-01T11:06:45;9.50;99.90
22635;DHT22;11484;50.858;4.384;2023-02-01T11:09:19;9.50;99.90
22635;DHT22;11484;50.858;4.384;2023-02-01T11:16:53;9.80;99.90
22635;DHT22;11484;50.858;4.384;2023-02-01T11:19:19;10.00;99.90
22635;DHT22;11484;50.858;4.384;2023-02-01T11:21:50;10.00;99.90
22635;DHT22;11484;50.858;4.384;2023-02-01T11:24:37;10.10;99.90
22635;DHT22;11484;50.858;4.384;2023-02-01T11:27:12;10.20;99.90
22635;DHT22;11484;50.858;4.384;2023-02-01T11:29:43;10.20;99.90
22635;DHT22;11484;50.858;4.384;2023-02-01T11:32:10;10.30;99.90
22635;DHT22;11484;50.858;4.384;2023-02-01T11:34:43;10.40;99.90
22635;DHT22;11484;50.858;4.384;2023-02-01T11:37:27;10.50;99.90
22635;DHT22;11484;50.858;4.384;2023-02-01T11:39:56;10.40;99.90
22635;DHT22;11484;50.858;4.384;2023-02-01T11:42:22;10.40;99.90
22635;DHT22;11484;50.858;4.384;2023-02-01T11:44:48;10.30;99.90
22635;DHT22;11484;50.858;4.384;2023-02-01T11:47:26;10.30;99.90
22635;DHT22;11484;50.858;4.384;2023-02-01T11:49:54;10.20;99.90
22635;DHT22;11484;50.858;4.384;2023-02-01T11:52:53;10.10;99.90
22635;DHT22;11484;50.858;4.384;2023-02-01T11:55:33;10.10;99.90
22635;DHT22;11484;50.858;4.384;2023-02-01T12:07:23;10.50;99.90
22635;DHT22;11484;50.858;4.384;2023-02-01T12:20:28;10.80;99.90
22635;DHT22;11484;50.858;4.384;2023-02-01T12:44:54;11.30;99.90
22635;DHT22;11484;50.858;4.384;2023-02-01T12:47:32;11.30;99.90
22635;DHT22;11484;50.858;4.384;2023-02-01T12:50:03;11.30;99.90
22635;DHT22;11484;50.858;4.384;2023-02-01T12:52:44;11.30;99.90
22635;DHT22;11484;50.858;4.384;2023-02-01T12:55:35;11.30;99.90
22635;DHT22;11484;50.858;4.384;2023-02-01T12:58:23;11.30;99.90
22635;DHT22;11484;50.858;4.384;2023-02-01T13:00:58;11.40;99.90
22635;DHT22;11484;50.858;4.384;2023-02-01T13:03:38;11.40;99.90
22635;DHT22;11484;50.858;4.384;2023-02-01T13:06:32;11.50;99.90
22635;DHT22;11484;50.858;4.384;2023-02-01T13:12:15;11.60;99.90
22635;DHT22;11484;50.858;4.384;2023-02-01T13:14:46;11.70;99.90
22635;DHT22;11484;50.858;4.384;2023-02-01T13:17:24;11.80;99.90
22635;DHT22;11484;50.858;4.384;2023-02-01T13:19:55;11.80;99.90
22635;DHT22;11484;50.858;4.384;2023-02-01T13:22:40;11.80;99.90
22635;DHT22;11484;50.858;4.384;2023-02-01T13:25:16;11.80;99.90
22635;DHT22;11484;50.858;4.384;2023-02-01T13:27:43;11.80;99.90
22635;DHT22;11484;50.858;4.384;2023-02-01T13:30:30;11.80;99.90
22635;DHT22;11484;50.858;4.384;2023-02-01T13:33:18;11.90;99.90
22635;DHT22;11484;50.858;4.384;2023-02-01T13:41:23;11.80;99.90
22635;DHT22;11484;50.858;4.384;2023-02-01T13:44:16;11.90;99.90
22635;DHT22;11484;50.858;4.384;2023-02-01T13:46:45;11.90;99.90
22635;DHT22;11484;50.858;4.384;2023-02-01T13:49:26;11.90;99.90
22635;DHT22;11484;50.858;4.384;2023-02-01T13:51:53;11.70;99.90
22635;DHT22;11484;50.858;4.384;2023-02-01T13:54:39;11.80;99.90
22635;DHT22;11484;50.858;4.384;2023-02-01T13:57:31;11.80;99.90
22635;DHT22;11484;50.858;4.384;2023-02-01T14:00:25;11.90;99.90
22635;DHT22;11484;50.858;4.384;2023-02-01T14:13:35;12.10;99.90
22635;DHT22;11484;50.858;4.384;2023-02-01T14:21:32;12.10;99.90
22635;DHT22;11484;50.858;4.384;2023-02-01T14:24:22;12.00;99.90
22635;DHT22;11484;50.858;4.384;2023-02-01T14:26:51;11.80;99.90
22635;DHT22;11484;50.858;4.384;2023-02-01T14:34:34;11.70;99.90
22635;DHT22;11484;50.858;4.384;2023-02-01T14:37:03;11.50;99.90
22635;DHT22;11484;50.858;4.384;2023-02-01T14:39:53;11.40;99.90
22635;DHT22;11484;50.858;4.384;2023-02-01T15:09:25;11.30;99.90
22635;DHT22;11484;50.858;4.384;2023-02-01T15:12:03;11.30;99.90
22635;DHT22;11484;50.858;4.384;2023-02-01T15:14:40;11.10;99.90
22635;DHT22;11484;50.858;4.384;2023-02-01T15:17:28;11.00;99.90
22635;DHT22;11484;50.858;4.384;2023-02-01T15:20:01;11.00;99.90
22635;DHT22;11484;50.858;4.384;2023-02-01T15:22:29;11.00;99.90
22635;DHT22;11484;50.858;4.384;2023-02-01T15:24:58;11.00;99.90
22635;DHT22;11484;50.858;4.384;2023-02-01T15:27:25;11.00;99.90
22635;DHT22;11484;50.858;4.384;2023-02-01T15:29:51;10.80;99.90
22635;DHT22;11484;50.858;4.384;2023-02-01T15:32:47;10.80;99.90
22635;DHT22;11484;50.858;4.384;2023-02-01T15:35:36;10.70;99.90
22635;DHT22;11484;50.858;4.384;2023-02-01T15:38:31;10.80;99.90
22635;DHT22;11484;50.858;4.384;2023-02-01T15:43:26;10.80;99.90
22635;DHT22;11484;50.858;4.384;2023-02-01T15:45:59;10.80;99.90
22635;DHT22;11484;50.858;4.384;2023-02-01T15:48:27;10.80;99.90
22635;DHT22;11484;50.858;4.384;2023-02-01T15:50:55;10.90;99.90
22635;DHT22;11484;50.858;4.384;2023-02-01T15:53:24;10.80;99.90
22635;DHT22;11484;50.858;4.384;2023-02-01T15:55:56;10.80;99.90
22635;DHT22;11484;50.858;4.384;2023-02-01T15:58:23;10.80;99.90
22635;DHT22;11484;50.858;4.384;2023-02-01T16:01:02;10.70;99.90
22635;DHT22;11484;50.858;4.384;2023-02-01T16:03:34;10.70;99.90
22635;DHT22;11484;50.858;4.384;2023-02-01T16:06:12;10.70;99.90
22635;DHT22;11484;50.858;4.384;2023-02-01T16:08:51;10.70;99.90
22635;DHT22;11484;50.858;4.384;2023-02-01T16:11:52;10.60;99.90
22635;DHT22;11484;50.858;4.384;2023-02-01T16:14:19;10.60;99.90
22635;DHT22;11484;50.858;4.384;2023-02-01T16:16:45;10.60;99.90
22635;DHT22;11484;50.858;4.384;2023-02-01T16:19:10;10.60;99.90
22635;DHT22;11484;50.858;4.384;2023-02-01T16:21:36;10.60;99.90
22635;DHT22;11484;50.858;4.384;2023-02-01T16:24:02;10.60;99.90
22635;DHT22;11484;50.858;4.384;2023-02-01T16:26:30;10.60;99.90
22635;DHT22;11484;50.858;4.384;2023-02-01T16:28:57;10.70;99.90
22635;DHT22;11484;50.858;4.384;2023-02-01T16:31:27;10.70;99.90
22635;DHT22;11484;50.858;4.384;2023-02-01T16:33:53;10.70;99.90
22635;DHT22;11484;50.858;4.384;2023-02-01T16:36:19;10.70;99.90
22635;DHT22;11484;50.858;4.384;2023-02-01T16:38:46;10.70;99.90
22635;DHT22;11484;50.858;4.384;2023-02-01T16:41:14;10.70;99.90
22635;DHT22;11484;50.858;4.384;2023-02-01T16:43:40;10.60;99.90
22635;DHT22;11484;50.858;4.384;2023-02-01T16:46:13;10.70;99.90
22635;DHT22;11484;50.858;4.384;2023-02-01T16:48:41;10.70;99.90
22635;DHT22;11484;50.858;4.384;2023-02-01T16:51:12;10.60;99.90
22635;DHT22;11484;50.858;4.384;2023-02-01T16:53:39;10.50;99.90
22635;DHT22;11484;50.858;4.384;2023-02-01T16:56:17;10.40;99.90
22635;DHT22;11484;50.858;4.384;2023-02-01T16:58:43;10.50;99.90
22635;DHT22;11484;50.858;4.384;2023-02-01T17:01:15;10.50;99.90
22635;DHT22;11484;50.858;4.384;2023-02-01T17:03:41;10.50;99.90
22635;DHT22;11484;50.858;4.384;2023-02-01T17:06:10;10.50;99.90
22635;DHT22;11484;50.858;4.384;2023-02-01T17:08:40;10.40;99.90
22635;DHT22;11484;50.858;4.384;2023-02-01T17:11:07;10.50;99.90
22635;DHT22;11484;50.858;4.384;2023-02-01T17:13:33;10.50;99.90
22635;DHT22;11484;50.858;4.384;2023-02-01T17:16:05;10.50;99.90
22635;DHT22;11484;50.858;4.384;2023-02-01T17:18:34;10.40;99.90
22635;DHT22;11484;50.858;4.384;2023-02-01T17:21:02;10.40;99.90
22635;DHT22;11484;50.858;4.384;2023-02-01T17:23:29;10.40;99.90
22635;DHT22;11484;50.858;4.384;2023-02-01T17:25:55;10.40;99.90
22635;DHT22;11484;50.858;4.384;2023-02-01T17:28:21;10.40;99.90
22635;DHT22;11484;50.858;4.384;2023-02-01T17:30:47;10.50;99.90
22635;DHT22;11484;50.858;4.384;2023-02-01T17:33:25;10.40;99.90
22635;DHT22;11484;50.858;4.384;2023-02-01T17:35:54;10.50;99.90
22635;DHT22;11484;50.858;4.384;2023-02-01T17:38:20;10.60;99.90
22635;DHT22;11484;50.858;4.384;2023-02-01T17:40:46;10.50;99.90
22635;DHT22;11484;50.858;4.384;2023-02-01T17:43:16;10.40;99.90
22635;DHT22;11484;50.858;4.384;2023-02-01T17:45:49;10.40;99.90
22635;DHT22;11484;50.858;4.384;2023-02-01T17:48:18;10.40;99.90
22635;DHT22;11484;50.858;4.384;2023-02-01T17:50:46;10.30;99.90
22635;DHT22;11484;50.858;4.384;2023-02-01T17:53:12;10.30;99.90
22635;DHT22;11484;50.858;4.384;2023-02-01T17:55:42;10.20;99.90
22635;DHT22;11484;50.858;4.384;2023-02-01T17:58:11;10.20;99.90
22635;DHT22;11484;50.858;4.384;2023-02-01T18:00:38;10.20;99.90
22635;DHT22;11484;50.858;4.384;2023-02-01T18:03:04;10.20;99.90
22635;DHT22;11484;50.858;4.384;2023-02-01T18:05:41;10.20;99.90
22635;DHT22;11484;50.858;4.384;2023-02-01T18:08:08;10.20;99.90
22635;DHT22;11484;50.858;4.384;2023-02-01T18:10:34;10.20;99.90
22635;DHT22;11484;50.858;4.384;2023-02-01T18:13:03;10.20;99.90
22635;DHT22;11484;50.858;4.384;2023-02-01T18:15:30;10.20;99.90
22635;DHT22;11484;50.858;4.384;2023-02-01T18:17:56;10.30;99.90
22635;DHT22;11484;50.858;4.384;2023-02-01T18:20:24;10.30;99.90
22635;DHT22;11484;50.858;4.384;2023-02-01T18:22:50;10.30;99.90
22635;DHT22;11484;50.858;4.384;2023-02-01T18:25:24;10.20;99.90
22635;DHT22;11484;50.858;4.384;2023-02-01T18:27:52;10.30;99.90
22635;DHT22;11484;50.858;4.384;2023-02-01T18:30:20;10.30;99.90
22635;DHT22;11484;50.858;4.384;2023-02-01T18:32:46;10.30;99.90
22635;DHT22;11484;50.858;4.384;2023-02-01T18:35:36;10.30;99.90
22635;DHT22;11484;50.858;4.384;2023-02-01T18:38:01;10.30;99.90
22635;DHT22;11484;50.858;4.384;2023-02-01T18:40:32;10.40;99.90
22635;DHT22;11484;50.858;4.384;2023-02-01T18:42:58;10.40;99.90
22635;DHT22;11484;50.858;4.384;2023-02-01T18:47:55;10.40;99.90
22635;DHT22;11484;50.858;4.384;2023-02-01T18:50:21;10.40;99.90
22635;DHT22;11484;50.858;4.384;2023-02-01T18:52:49;10.40;99.90
22635;DHT22;11484;50.858;4.384;2023-02-01T18:55:17;10.40;99.90